sensor_id;sensor_type;location;lat;lon;timestamp;P1;durP1;ratioP1;P2;durP2;ratioP2
2474;SDS011;1248;48.694;10.160;2023-10-19T00:00:30;35.63;;;23.50;;
2474;SDS011;1248;48.694;10.160;2023-10-19T00:02:59;34.87;;;24.97;;
2474;SDS011;1248;48.694;10.160;2023-10-19T00:05:28;36.87;;;23.60;;
2474;SDS011;1248;48.694;10.160;2023-10-19T00:07:55;32.87;;;22.73;;
2474;SDS011;1248;48.694;10.160;2023-10-19T00:10:26;35.10;;;24.23;;
2474;SDS011;1248;48.694;10.160;2023-10-19T00:12:56;31.67;;;23.17;;
2474;SDS011;1248;48.694;10.160;2023-10-19T00:15:25;36.93;;;23.10;;
2474;SDS011;1248;48.694;10.160;2023-10-19T00:17:56;34.93;;;24.50;;
2474;SDS011;1248;48.694;10.160;2023-10-19T00:20:24;31.30;;;22.23;;
2474;SDS011;1248;48.694;10.160;2023-10-19T00:23:02;36.73;;;25.73;;
2474;SDS011;1248;48.694;10.160;2023-10-19T00:25:32;37.33;;;24.57;;
2474;SDS011;1248;48.694;10.160;2023-10-19T00:28:00;33.10;;;23.27;;
2474;SDS011;1248;48.694;10.160;2023-10-19T00:30:30;34.47;;;23.27;;
2474;SDS011;1248;48.694;10.160;2023-10-19T00:33:01;29.83;;;21.20;;
2474;SDS011;1248;48.694;10.160;2023-10-19T00:35:29;31.80;;;25.23;;
2474;SDS011;1248;48.694;10.160;2023-10-19T00:38:01;33.03;;;22.90;;
2474;SDS011;1248;48.694;10.160;2023-10-19T00:40:44;39.10;;;24.97;;
2474;SDS011;1248;48.694;10.160;2023-10-19T00:43:26;33.60;;;22.37;;
2474;SDS011;1248;48.694;10.160;2023-10-19T00:45:54;33.53;;;23.27;;
2474;SDS011;1248;48.694;10.160;2023-10-19T00:48:22;28.40;;;21.30;;
2474;SDS011;1248;48.694;10.160;2023-10-19T00:50:52;37.27;;;23.77;;
2474;SDS011;1248;48.694;10.160;2023-10-19T00:53:33;31.93;;;21.70;;
2474;SDS011;1248;48.694;10.160;2023-10-19T00:56:03;32.80;;;22.97;;
2474;SDS011;1248;48.694;10.160;2023-10-19T00:58:31;29.93;;;21.27;;
2474;SDS011;1248;48.694;10.160;2023-10-19T01:01:02;34.13;;;23.17;;
2474;SDS011;1248;48.694;10.160;2023-10-19T01:03:31;32.47;;;21.87;;
2474;SDS011;1248;48.694;10.160;2023-10-19T01:06:02;35.53;;;23.60;;
2474;SDS011;1248;48.694;10.160;2023-10-19T01:08:36;38.27;;;22.73;;
2474;SDS011;1248;48.694;10.160;2023-10-19T01:11:10;33.83;;;22.33;;
2474;SDS011;1248;48.694;10.160;2023-10-19T01:13:38;29.07;;;21.80;;
2474;SDS011;1248;48.694;10.160;2023-10-19T01:16:11;33.87;;;23.53;;
2474;SDS011;1248;48.694;10.160;2023-10-19T01:18:41;29.00;;;22.10;;
2474;SDS011;1248;48.694;10.160;2023-10-19T01:21:09;32.87;;;21.33;;
2474;SDS011;1248;48.694;10.160;2023-10-19T01:23:38;33.30;;;23.07;;
2474;SDS011;1248;48.694;10.160;2023-10-19T01:26:06;32.20;;;22.60;;
2474;SDS011;1248;48.694;10.160;2023-10-19T01:28:34;26.40;;;21.20;;
2474;SDS011;1248;48.694;10.160;2023-10-19T01:31:10;29.70;;;21.07;;
2474;SDS011;1248;48.694;10.160;2023-10-19T01:33:48;33.07;;;21.80;;
2474;SDS011;1248;48.694;10.160;2023-10-19T01:36:16;31.10;;;21.93;;
2474;SDS011;1248;48.694;10.160;2023-10-19T01:38:52;36.30;;;20.30;;
2474;SDS011;1248;48.694;10.160;2023-10-19T01:41:20;30.23;;;21.60;;
2474;SDS011;1248;48.694;10.160;2023-10-19T01:43:48;33.00;;;22.27;;
2474;SDS011;1248;48.694;10.160;2023-10-19T01:46:17;29.70;;;21.70;;
2474;SDS011;1248;48.694;10.160;2023-10-19T01:48:50;27.17;;;21.33;;
2474;SDS011;1248;48.694;10.160;2023-10-19T01:51:20;35.43;;;23.80;;
2474;SDS011;1248;48.694;10.160;2023-10-19T01:53:49;30.33;;;21.93;;
2474;SDS011;1248;48.694;10.160;2023-10-19T01:56:16;33.77;;;23.93;;
2474;SDS011;1248;48.694;10.160;2023-10-19T01:58:45;36.60;;;23.20;;
2474;SDS011;1248;48.694;10.160;2023-10-19T02:01:12;30.70;;;22.43;;
2474;SDS011;1248;48.694;10.160;2023-10-19T02:03:46;30.83;;;23.47;;
2474;SDS011;1248;48.694;10.160;2023-10-19T02:06:13;30.17;;;21.53;;
2474;SDS011;1248;48.694;10.160;2023-10-19T02:08:46;36.30;;;24.10;;
2474;SDS011;1248;48.694;10.160;2023-10-19T02:11:15;28.27;;;20.70;;
2474;SDS011;1248;48.694;10.160;2023-10-19T02:13:47;32.57;;;21.73;;
2474;SDS011;1248;48.694;10.160;2023-10-19T02:16:15;28.33;;;21.67;;
2474;SDS011;1248;48.694;10.160;2023-10-19T02:18:44;31.30;;;21.70;;
2474;SDS011;1248;48.694;10.160;2023-10-19T02:21:10;33.50;;;24.10;;
2474;SDS011;1248;48.694;10.160;2023-10-19T02:23:39;36.50;;;23.37;;
2474;SDS011;1248;48.694;10.160;2023-10-19T02:26:05;37.63;;;23.37;;
2474;SDS011;1248;48.694;10.160;2023-10-19T02:28:34;31.87;;;22.60;;
2474;SDS011;1248;48.694;10.160;2023-10-19T02:31:03;35.10;;;23.37;;
2474;SDS011;1248;48.694;10.160;2023-10-19T02:33:41;34.17;;;24.80;;
2474;SDS011;1248;48.694;10.160;2023-10-19T02:36:11;31.33;;;23.23;;
2474;SDS011;1248;48.694;10.160;2023-10-19T02:38:41;36.73;;;23.57;;
2474;SDS011;1248;48.694;10.160;2023-10-19T02:41:09;32.20;;;23.80;;
2474;SDS011;1248;48.694;10.160;2023-10-19T02:43:38;33.80;;;23.30;;
2474;SDS011;1248;48.694;10.160;2023-10-19T02:46:06;40.03;;;23.37;;
2474;SDS011;1248;48.694;10.160;2023-10-19T02:48:36;34.63;;;23.70;;
2474;SDS011;1248;48.694;10.160;2023-10-19T02:51:02;31.27;;;23.13;;
2474;SDS011;1248;48.694;10.160;2023-10-19T02:53:36;36.37;;;22.20;;
2474;SDS011;1248;48.694;10.160;2023-10-19T02:56:10;32.97;;;21.37;;
2474;SDS011;1248;48.694;10.160;2023-10-19T02:58:41;33.97;;;22.17;;
2474;SDS011;1248;48.694;10.160;2023-10-19T03:01:12;31.73;;;22.40;;
2474;SDS011;1248;48.694;10.160;2023-10-19T03:03:47;30.90;;;23.10;;
2474;SDS011;1248;48.694;10.160;2023-10-19T03:06:19;29.57;;;21.17;;
2474;SDS011;1248;48.694;10.160;2023-10-19T03:08:46;30.80;;;21.90;;
2474;SDS011;1248;48.694;10.160;2023-10-19T03:11:14;35.87;;;22.50;;
2474;SDS011;1248;48.694;10.160;2023-10-19T03:13:41;39.23;;;23.77;;
2474;SDS011;1248;48.694;10.160;2023-10-19T03:16:09;29.80;;;23.27;;
2474;SDS011;1248;48.694;10.160;2023-10-19T03:18:36;33.57;;;23.03;;
2474;SDS011;1248;48.694;10.160;2023-10-19T03:21:04;32.00;;;22.60;;
2474;SDS011;1248;48.694;10.160;2023-10-19T03:23:31;31.67;;;22.67;;
2474;SDS011;1248;48.694;10.160;2023-10-19T03:26:00;29.70;;;20.43;;
2474;SDS011;1248;48.694;10.160;2023-10-19T03:28:50;34.33;;;23.43;;
2474;SDS011;1248;48.694;10.160;2023-10-19T03:31:21;31.73;;;23.10;;
2474;SDS011;1248;48.694;10.160;2023-10-19T03:33:50;39.47;;;23.90;;
2474;SDS011;1248;48.694;10.160;2023-10-19T03:36:20;35.00;;;23.03;;
2474;SDS011;1248;48.694;10.160;2023-10-19T03:38:48;29.33;;;21.77;;
2474;SDS011;1248;48.694;10.160;2023-10-19T03:41:17;34.00;;;23.57;;
2474;SDS011;1248;48.694;10.160;2023-10-19T03:43:47;30.90;;;22.47;;
2474;SDS011;1248;48.694;10.160;2023-10-19T03:46:18;33.17;;;25.03;;
2474;SDS011;1248;48.694;10.160;2023-10-19T03:48:54;30.20;;;22.93;;
2474;SDS011;1248;48.694;10.160;2023-10-19T03:51:25;33.83;;;22.83;;
2474;SDS011;1248;48.694;10.160;2023-10-19T03:53:53;31.87;;;23.53;;
2474;SDS011;1248;48.694;10.160;2023-10-19T03:56:26;33.30;;;23.80;;
2474;SDS011;1248;48.694;10.160;2023-10-19T03:58:58;32.07;;;22.40;;
2474;SDS011;1248;48.694;10.160;2023-10-19T04:01:27;32.10;;;23.00;;
2474;SDS011;1248;48.694;10.160;2023-10-19T04:03:57;36.80;;;25.07;;
2474;SDS011;1248;48.694;10.160;2023-10-19T04:06:24;34.20;;;23.80;;
2474;SDS011;1248;48.694;10.160;2023-10-19T04:08:53;39.30;;;23.37;;
2474;SDS011;1248;48.694;10.160;2023-10-19T04:11:20;40.23;;;24.40;;
2474;SDS011;1248;48.694;10.160;2023-10-19T04:13:58;34.07;;;23.57;;
2474;SDS011;1248;48.694;10.160;2023-10-19T04:16:30;37.40;;;24.40;;
2474;SDS011;1248;48.694;10.160;2023-10-19T04:19:02;40.97;;;26.10;;
2474;SDS011;1248;48.694;10.160;2023-10-19T04:21:30;45.70;;;26.87;;
2474;SDS011;1248;48.694;10.160;2023-10-19T04:23:57;42.70;;;25.40;;
2474;SDS011;1248;48.694;10.160;2023-10-19T04:26:24;40.10;;;26.40;;
2474;SDS011;1248;48.694;10.160;2023-10-19T04:28:52;38.43;;;25.77;;
2474;SDS011;1248;48.694;10.160;2023-10-19T04:31:20;43.80;;;27.63;;
2474;SDS011;1248;48.694;10.160;2023-10-19T04:33:50;39.67;;;27.30;;
2474;SDS011;1248;48.694;10.160;2023-10-19T04:36:20;47.57;;;29.73;;
2474;SDS011;1248;48.694;10.160;2023-10-19T04:38:47;44.77;;;30.30;;
2474;SDS011;1248;48.694;10.160;2023-10-19T04:41:14;44.37;;;28.47;;
2474;SDS011;1248;48.694;10.160;2023-10-19T04:43:41;51.43;;;30.20;;
2474;SDS011;1248;48.694;10.160;2023-10-19T04:46:15;52.43;;;30.30;;
2474;SDS011;1248;48.694;10.160;2023-10-19T04:48:44;46.23;;;30.83;;
2474;SDS011;1248;48.694;10.160;2023-10-19T04:51:12;50.17;;;28.77;;
2474;SDS011;1248;48.694;10.160;2023-10-19T04:53:39;52.40;;;32.17;;
2474;SDS011;1248;48.694;10.160;2023-10-19T04:56:07;46.10;;;30.43;;
2474;SDS011;1248;48.694;10.160;2023-10-19T04:58:35;45.30;;;29.03;;
2474;SDS011;1248;48.694;10.160;2023-10-19T05:01:03;57.43;;;33.07;;
2474;SDS011;1248;48.694;10.160;2023-10-19T05:03:30;55.57;;;33.00;;
2474;SDS011;1248;48.694;10.160;2023-10-19T05:05:58;60.80;;;33.00;;
2474;SDS011;1248;48.694;10.160;2023-10-19T05:08:26;59.73;;;32.90;;
2474;SDS011;1248;48.694;10.160;2023-10-19T05:10:54;64.10;;;32.20;;
2474;SDS011;1248;48.694;10.160;2023-10-19T05:13:22;57.57;;;34.40;;
2474;SDS011;1248;48.694;10.160;2023-10-19T05:15:51;53.00;;;32.80;;
2474;SDS011;1248;48.694;10.160;2023-10-19T05:18:18;53.23;;;33.30;;
2474;SDS011;1248;48.694;10.160;2023-10-19T05:20:46;61.93;;;34.60;;
2474;SDS011;1248;48.694;10.160;2023-10-19T05:23:13;59.80;;;36.10;;
2474;SDS011;1248;48.694;10.160;2023-10-19T05:25:41;57.53;;;33.63;;
2474;SDS011;1248;48.694;10.160;2023-10-19T05:28:08;63.00;;;36.53;;
2474;SDS011;1248;48.694;10.160;2023-10-19T05:30:36;65.90;;;37.67;;
2474;SDS011;1248;48.694;10.160;2023-10-19T05:33:03;68.23;;;36.30;;
2474;SDS011;1248;48.694;10.160;2023-10-19T05:35:31;67.70;;;37.17;;
2474;SDS011;1248;48.694;10.160;2023-10-19T05:38:00;65.53;;;38.50;;
2474;SDS011;1248;48.694;10.160;2023-10-19T05:40:28;75.63;;;40.40;;
2474;SDS011;1248;48.694;10.160;2023-10-19T05:42:57;77.80;;;41.00;;
2474;SDS011;1248;48.694;10.160;2023-10-19T05:45:26;69.73;;;38.10;;
2474;SDS011;1248;48.694;10.160;2023-10-19T05:47:55;67.50;;;36.50;;
2474;SDS011;1248;48.694;10.160;2023-10-19T05:50:22;65.60;;;35.73;;
2474;SDS011;1248;48.694;10.160;2023-10-19T05:52:49;67.73;;;37.13;;
2474;SDS011;1248;48.694;10.160;2023-10-19T05:55:17;75.97;;;38.27;;
2474;SDS011;1248;48.694;10.160;2023-10-19T05:57:46;65.00;;;37.40;;
2474;SDS011;1248;48.694;10.160;2023-10-19T06:00:16;63.57;;;37.70;;
2474;SDS011;1248;48.694;10.160;2023-10-19T06:02:46;74.00;;;39.40;;
2474;SDS011;1248;48.694;10.160;2023-10-19T06:05:15;66.57;;;38.60;;
2474;SDS011;1248;48.694;10.160;2023-10-19T06:07:43;57.57;;;34.27;;
2474;SDS011;1248;48.694;10.160;2023-10-19T06:10:13;80.23;;;37.47;;
2474;SDS011;1248;48.694;10.160;2023-10-19T06:12:43;67.10;;;37.20;;
2474;SDS011;1248;48.694;10.160;2023-10-19T06:15:10;72.90;;;37.17;;
2474;SDS011;1248;48.694;10.160;2023-10-19T06:17:39;68.63;;;35.90;;
2474;SDS011;1248;48.694;10.160;2023-10-19T06:20:07;66.50;;;37.60;;
2474;SDS011;1248;48.694;10.160;2023-10-19T06:22:45;72.50;;;38.00;;
2474;SDS011;1248;48.694;10.160;2023-10-19T06:25:16;66.57;;;37.80;;
2474;SDS011;1248;48.694;10.160;2023-10-19T06:27:44;82.40;;;38.20;;
2474;SDS011;1248;48.694;10.160;2023-10-19T06:30:12;80.03;;;39.53;;
2474;SDS011;1248;48.694;10.160;2023-10-19T06:32:45;68.87;;;37.27;;
2474;SDS011;1248;48.694;10.160;2023-10-19T06:35:13;60.50;;;35.90;;
2474;SDS011;1248;48.694;10.160;2023-10-19T06:37:40;64.10;;;37.90;;
2474;SDS011;1248;48.694;10.160;2023-10-19T06:40:08;66.43;;;38.57;;
2474;SDS011;1248;48.694;10.160;2023-10-19T06:42:37;70.57;;;38.70;;
2474;SDS011;1248;48.694;10.160;2023-10-19T06:45:05;62.23;;;36.13;;
2474;SDS011;1248;48.694;10.160;2023-10-19T06:47:33;63.23;;;36.87;;
2474;SDS011;1248;48.694;10.160;2023-10-19T06:50:05;66.30;;;37.30;;
2474;SDS011;1248;48.694;10.160;2023-10-19T06:52:35;60.60;;;33.97;;
2474;SDS011;1248;48.694;10.160;2023-10-19T06:55:03;58.03;;;36.00;;
2474;SDS011;1248;48.694;10.160;2023-10-19T06:57:31;67.60;;;35.93;;
2474;SDS011;1248;48.694;10.160;2023-10-19T06:59:58;65.13;;;38.67;;
2474;SDS011;1248;48.694;10.160;2023-10-19T07:02:33;53.47;;;34.67;;
2474;SDS011;1248;48.694;10.160;2023-10-19T07:05:00;61.00;;;35.67;;
2474;SDS011;1248;48.694;10.160;2023-10-19T07:07:30;58.77;;;33.90;;
2474;SDS011;1248;48.694;10.160;2023-10-19T07:09:57;55.63;;;33.60;;
2474;SDS011;1248;48.694;10.160;2023-10-19T07:12:24;53.97;;;33.10;;
2474;SDS011;1248;48.694;10.160;2023-10-19T07:14:51;55.13;;;30.40;;
2474;SDS011;1248;48.694;10.160;2023-10-19T07:17:18;51.53;;;31.53;;
2474;SDS011;1248;48.694;10.160;2023-10-19T07:19:45;46.60;;;29.17;;
2474;SDS011;1248;48.694;10.160;2023-10-19T07:22:14;45.00;;;28.70;;
2474;SDS011;1248;48.694;10.160;2023-10-19T07:24:43;58.70;;;34.83;;
2474;SDS011;1248;48.694;10.160;2023-10-19T07:27:10;50.83;;;29.30;;
2474;SDS011;1248;48.694;10.160;2023-10-19T07:29:43;41.70;;;26.87;;
2474;SDS011;1248;48.694;10.160;2023-10-19T07:32:10;46.57;;;29.00;;
2474;SDS011;1248;48.694;10.160;2023-10-19T07:34:39;46.30;;;29.30;;
2474;SDS011;1248;48.694;10.160;2023-10-19T07:37:06;41.23;;;27.93;;
2474;SDS011;1248;48.694;10.160;2023-10-19T07:39:33;41.27;;;29.50;;
2474;SDS011;1248;48.694;10.160;2023-10-19T07:42:06;46.80;;;28.50;;
2474;SDS011;1248;48.694;10.160;2023-10-19T07:44:33;43.67;;;27.37;;
2474;SDS011;1248;48.694;10.160;2023-10-19T07:47:00;39.87;;;26.40;;
2474;SDS011;1248;48.694;10.160;2023-10-19T07:49:27;42.63;;;26.60;;
2474;SDS011;1248;48.694;10.160;2023-10-19T07:51:54;40.87;;;27.03;;
2474;SDS011;1248;48.694;10.160;2023-10-19T07:54:23;40.63;;;26.90;;
2474;SDS011;1248;48.694;10.160;2023-10-19T07:56:50;48.90;;;28.00;;
2474;SDS011;1248;48.694;10.160;2023-10-19T07:59:18;38.70;;;27.07;;
2474;SDS011;1248;48.694;10.160;2023-10-19T08:01:45;42.50;;;28.00;;
2474;SDS011;1248;48.694;10.160;2023-10-19T08:04:12;38.80;;;27.13;;
2474;SDS011;1248;48.694;10.160;2023-10-19T08:06:39;42.30;;;27.10;;
2474;SDS011;1248;48.694;10.160;2023-10-19T08:09:06;40.17;;;26.73;;
2474;SDS011;1248;48.694;10.160;2023-10-19T08:11:37;39.50;;;27.70;;
2474;SDS011;1248;48.694;10.160;2023-10-19T08:14:04;47.30;;;28.13;;
2474;SDS011;1248;48.694;10.160;2023-10-19T08:16:33;48.80;;;27.37;;
2474;SDS011;1248;48.694;10.160;2023-10-19T08:19:00;42.20;;;26.30;;
2474;SDS011;1248;48.694;10.160;2023-10-19T08:21:27;41.33;;;27.33;;
2474;SDS011;1248;48.694;10.160;2023-10-19T08:23:54;43.30;;;28.90;;
2474;SDS011;1248;48.694;10.160;2023-10-19T08:26:22;45.43;;;27.63;;
2474;SDS011;1248;48.694;10.160;2023-10-19T08:28:49;44.27;;;27.57;;
2474;SDS011;1248;48.694;10.160;2023-10-19T08:31:17;46.90;;;29.67;;
2474;SDS011;1248;48.694;10.160;2023-10-19T08:33:45;52.80;;;29.87;;
2474;SDS011;1248;48.694;10.160;2023-10-19T08:36:17;42.30;;;27.97;;
2474;SDS011;1248;48.694;10.160;2023-10-19T08:38:45;42.07;;;28.40;;
2474;SDS011;1248;48.694;10.160;2023-10-19T08:41:12;45.50;;;31.37;;
2474;SDS011;1248;48.694;10.160;2023-10-19T08:43:41;47.50;;;30.07;;
2474;SDS011;1248;48.694;10.160;2023-10-19T08:46:08;46.53;;;31.20;;
2474;SDS011;1248;48.694;10.160;2023-10-19T08:48:35;47.53;;;29.80;;
2474;SDS011;1248;48.694;10.160;2023-10-19T08:51:10;42.93;;;28.50;;
2474;SDS011;1248;48.694;10.160;2023-10-19T08:53:37;40.47;;;27.20;;
2474;SDS011;1248;48.694;10.160;2023-10-19T08:56:06;42.30;;;29.53;;
2474;SDS011;1248;48.694;10.160;2023-10-19T08:58:34;42.63;;;28.00;;
2474;SDS011;1248;48.694;10.160;2023-10-19T09:01:01;37.83;;;27.43;;
2474;SDS011;1248;48.694;10.160;2023-10-19T09:03:32;42.67;;;27.77;;
2474;SDS011;1248;48.694;10.160;2023-10-19T09:06:00;39.17;;;28.40;;
2474;SDS011;1248;48.694;10.160;2023-10-19T09:08:29;40.37;;;26.70;;
2474;SDS011;1248;48.694;10.160;2023-10-19T09:11:05;46.20;;;27.70;;
2474;SDS011;1248;48.694;10.160;2023-10-19T09:13:42;41.60;;;27.80;;
2474;SDS011;1248;48.694;10.160;2023-10-19T09:16:13;44.60;;;28.70;;
2474;SDS011;1248;48.694;10.160;2023-10-19T09:18:41;42.93;;;28.10;;
2474;SDS011;1248;48.694;10.160;2023-10-19T09:21:08;39.50;;;27.10;;
2474;SDS011;1248;48.694;10.160;2023-10-19T09:23:38;36.23;;;26.57;;
2474;SDS011;1248;48.694;10.160;2023-10-19T09:26:07;44.10;;;28.27;;
2474;SDS011;1248;48.694;10.160;2023-10-19T09:28:35;42.40;;;27.20;;
2474;SDS011;1248;48.694;10.160;2023-10-19T09:31:03;41.13;;;28.50;;
2474;SDS011;1248;48.694;10.160;2023-10-19T09:33:31;42.37;;;29.03;;
2474;SDS011;1248;48.694;10.160;2023-10-19T09:36:00;37.33;;;26.50;;
2474;SDS011;1248;48.694;10.160;2023-10-19T09:38:30;40.80;;;28.10;;
2474;SDS011;1248;48.694;10.160;2023-10-19T09:41:00;44.90;;;27.80;;
2474;SDS011;1248;48.694;10.160;2023-10-19T09:43:30;39.13;;;27.93;;
2474;SDS011;1248;48.694;10.160;2023-10-19T09:46:01;38.53;;;25.73;;
2474;SDS011;1248;48.694;10.160;2023-10-19T09:48:34;41.40;;;29.60;;
2474;SDS011;1248;48.694;10.160;2023-10-19T09:51:07;39.00;;;27.67;;
2474;SDS011;1248;48.694;10.160;2023-10-19T09:53:35;46.37;;;30.00;;
2474;SDS011;1248;48.694;10.160;2023-10-19T09:56:05;42.70;;;27.80;;
2474;SDS011;1248;48.694;10.160;2023-10-19T09:58:33;45.37;;;28.60;;
2474;SDS011;1248;48.694;10.160;2023-10-19T10:01:03;45.67;;;28.63;;
2474;SDS011;1248;48.694;10.160;2023-10-19T10:03:44;40.67;;;27.00;;
2474;SDS011;1248;48.694;10.160;2023-10-19T10:06:12;38.43;;;27.30;;
2474;SDS011;1248;48.694;10.160;2023-10-19T10:08:43;44.07;;;29.10;;
2474;SDS011;1248;48.694;10.160;2023-10-19T10:11:16;41.63;;;28.90;;
2474;SDS011;1248;48.694;10.160;2023-10-19T10:13:45;42.40;;;29.30;;
2474;SDS011;1248;48.694;10.160;2023-10-19T10:16:16;38.60;;;27.80;;
2474;SDS011;1248;48.694;10.160;2023-10-19T10:18:44;41.17;;;26.30;;
2474;SDS011;1248;48.694;10.160;2023-10-19T10:21:14;43.97;;;27.57;;
2474;SDS011;1248;48.694;10.160;2023-10-19T10:23:42;35.43;;;26.17;;
2474;SDS011;1248;48.694;10.160;2023-10-19T10:26:11;42.37;;;28.33;;
2474;SDS011;1248;48.694;10.160;2023-10-19T10:28:41;43.47;;;29.60;;
2474;SDS011;1248;48.694;10.160;2023-10-19T10:31:09;44.50;;;27.20;;
2474;SDS011;1248;48.694;10.160;2023-10-19T10:33:42;49.97;;;28.73;;
2474;SDS011;1248;48.694;10.160;2023-10-19T10:36:11;45.40;;;26.57;;
2474;SDS011;1248;48.694;10.160;2023-10-19T10:38:39;42.60;;;28.30;;
2474;SDS011;1248;48.694;10.160;2023-10-19T10:41:07;45.07;;;29.10;;
2474;SDS011;1248;48.694;10.160;2023-10-19T10:43:54;41.87;;;29.27;;
2474;SDS011;1248;48.694;10.160;2023-10-19T10:46:22;45.53;;;27.77;;
2474;SDS011;1248;48.694;10.160;2023-10-19T10:48:50;43.07;;;28.37;;
2474;SDS011;1248;48.694;10.160;2023-10-19T10:51:18;42.90;;;28.00;;
2474;SDS011;1248;48.694;10.160;2023-10-19T10:53:47;41.33;;;27.37;;
2474;SDS011;1248;48.694;10.160;2023-10-19T10:56:15;44.13;;;28.47;;
2474;SDS011;1248;48.694;10.160;2023-10-19T10:58:43;42.47;;;29.67;;
2474;SDS011;1248;48.694;10.160;2023-10-19T11:01:11;45.67;;;29.50;;
2474;SDS011;1248;48.694;10.160;2023-10-19T11:03:40;47.63;;;28.87;;
2474;SDS011;1248;48.694;10.160;2023-10-19T11:06:08;41.57;;;27.70;;
2474;SDS011;1248;48.694;10.160;2023-10-19T11:08:35;41.70;;;30.47;;
2474;SDS011;1248;48.694;10.160;2023-10-19T11:11:03;46.57;;;32.83;;
2474;SDS011;1248;48.694;10.160;2023-10-19T11:13:32;41.50;;;28.47;;
2474;SDS011;1248;48.694;10.160;2023-10-19T11:16:03;49.20;;;31.73;;
2474;SDS011;1248;48.694;10.160;2023-10-19T11:18:33;43.07;;;29.60;;
2474;SDS011;1248;48.694;10.160;2023-10-19T11:21:03;45.40;;;32.20;;
2474;SDS011;1248;48.694;10.160;2023-10-19T11:23:38;42.50;;;29.57;;
2474;SDS011;1248;48.694;10.160;2023-10-19T11:26:06;37.70;;;28.63;;
2474;SDS011;1248;48.694;10.160;2023-10-19T11:28:34;41.40;;;28.70;;
2474;SDS011;1248;48.694;10.160;2023-10-19T11:31:11;41.77;;;29.20;;
2474;SDS011;1248;48.694;10.160;2023-10-19T11:33:41;42.37;;;29.50;;
2474;SDS011;1248;48.694;10.160;2023-10-19T11:36:09;37.13;;;28.07;;
2474;SDS011;1248;48.694;10.160;2023-10-19T11:38:40;43.50;;;29.93;;
2474;SDS011;1248;48.694;10.160;2023-10-19T11:41:08;37.57;;;27.80;;
2474;SDS011;1248;48.694;10.160;2023-10-19T11:43:35;44.80;;;28.70;;
2474;SDS011;1248;48.694;10.160;2023-10-19T11:46:02;43.03;;;29.13;;
2474;SDS011;1248;48.694;10.160;2023-10-19T11:48:31;37.17;;;27.03;;
2474;SDS011;1248;48.694;10.160;2023-10-19T11:51:00;38.93;;;27.53;;
2474;SDS011;1248;48.694;10.160;2023-10-19T11:53:30;40.37;;;26.70;;
2474;SDS011;1248;48.694;10.160;2023-10-19T11:56:00;42.67;;;30.07;;
2474;SDS011;1248;48.694;10.160;2023-10-19T11:58:29;38.60;;;28.97;;
2474;SDS011;1248;48.694;10.160;2023-10-19T12:00:58;40.57;;;28.00;;
2474;SDS011;1248;48.694;10.160;2023-10-19T12:03:25;43.53;;;29.57;;
2474;SDS011;1248;48.694;10.160;2023-10-19T12:05:53;48.63;;;35.13;;
2474;SDS011;1248;48.694;10.160;2023-10-19T12:08:22;38.77;;;29.37;;
2474;SDS011;1248;48.694;10.160;2023-10-19T12:10:50;49.53;;;32.10;;
2474;SDS011;1248;48.694;10.160;2023-10-19T12:13:17;48.43;;;28.77;;
2474;SDS011;1248;48.694;10.160;2023-10-19T12:15:44;47.87;;;30.03;;
2474;SDS011;1248;48.694;10.160;2023-10-19T12:18:17;41.10;;;29.60;;
2474;SDS011;1248;48.694;10.160;2023-10-19T12:20:45;43.17;;;30.50;;
2474;SDS011;1248;48.694;10.160;2023-10-19T12:23:13;40.63;;;29.17;;
2474;SDS011;1248;48.694;10.160;2023-10-19T12:25:41;43.20;;;30.33;;
2474;SDS011;1248;48.694;10.160;2023-10-19T12:28:11;41.37;;;29.77;;
2474;SDS011;1248;48.694;10.160;2023-10-19T12:30:40;42.30;;;30.60;;
2474;SDS011;1248;48.694;10.160;2023-10-19T12:33:08;46.87;;;30.77;;
2474;SDS011;1248;48.694;10.160;2023-10-19T12:35:38;41.73;;;29.97;;
2474;SDS011;1248;48.694;10.160;2023-10-19T12:38:15;39.10;;;27.40;;
2474;SDS011;1248;48.694;10.160;2023-10-19T12:40:45;43.53;;;31.07;;
2474;SDS011;1248;48.694;10.160;2023-10-19T12:43:13;42.53;;;26.73;;
2474;SDS011;1248;48.694;10.160;2023-10-19T12:45:40;38.80;;;27.60;;
2474;SDS011;1248;48.694;10.160;2023-10-19T12:48:09;44.40;;;29.30;;
2474;SDS011;1248;48.694;10.160;2023-10-19T12:50:37;41.83;;;27.97;;
2474;SDS011;1248;48.694;10.160;2023-10-19T12:53:04;43.23;;;28.27;;
2474;SDS011;1248;48.694;10.160;2023-10-19T12:55:33;40.97;;;28.37;;
2474;SDS011;1248;48.694;10.160;2023-10-19T12:58:01;32.37;;;24.93;;
2474;SDS011;1248;48.694;10.160;2023-10-19T13:00:34;41.53;;;27.90;;
2474;SDS011;1248;48.694;10.160;2023-10-19T13:03:10;40.37;;;28.53;;
2474;SDS011;1248;48.694;10.160;2023-10-19T13:05:40;39.00;;;28.00;;
2474;SDS011;1248;48.694;10.160;2023-10-19T13:08:08;39.00;;;28.50;;
2474;SDS011;1248;48.694;10.160;2023-10-19T13:10:35;38.37;;;27.90;;
2474;SDS011;1248;48.694;10.160;2023-10-19T13:13:07;45.97;;;30.17;;
2474;SDS011;1248;48.694;10.160;2023-10-19T13:15:37;44.53;;;29.93;;
2474;SDS011;1248;48.694;10.160;2023-10-19T13:18:05;41.93;;;30.90;;
2474;SDS011;1248;48.694;10.160;2023-10-19T13:20:35;41.50;;;30.40;;
2474;SDS011;1248;48.694;10.160;2023-10-19T13:23:03;41.17;;;29.40;;
2474;SDS011;1248;48.694;10.160;2023-10-19T13:25:32;43.97;;;30.73;;
2474;SDS011;1248;48.694;10.160;2023-10-19T13:28:09;46.30;;;32.10;;
2474;SDS011;1248;48.694;10.160;2023-10-19T13:30:37;50.60;;;32.27;;
2474;SDS011;1248;48.694;10.160;2023-10-19T13:33:04;46.37;;;30.50;;
2474;SDS011;1248;48.694;10.160;2023-10-19T13:35:32;48.90;;;31.60;;
2474;SDS011;1248;48.694;10.160;2023-10-19T13:38:00;42.50;;;31.37;;
2474;SDS011;1248;48.694;10.160;2023-10-19T13:40:27;44.07;;;30.60;;
2474;SDS011;1248;48.694;10.160;2023-10-19T13:42:56;47.73;;;34.27;;
2474;SDS011;1248;48.694;10.160;2023-10-19T13:45:25;41.23;;;30.80;;
2474;SDS011;1248;48.694;10.160;2023-10-19T13:47:52;45.67;;;32.73;;
2474;SDS011;1248;48.694;10.160;2023-10-19T13:50:23;42.57;;;32.50;;
2474;SDS011;1248;48.694;10.160;2023-10-19T13:52:52;45.70;;;31.87;;
2474;SDS011;1248;48.694;10.160;2023-10-19T13:55:20;43.60;;;31.33;;
2474;SDS011;1248;48.694;10.160;2023-10-19T13:57:47;48.33;;;33.00;;
2474;SDS011;1248;48.694;10.160;2023-10-19T14:00:15;52.30;;;35.70;;
2474;SDS011;1248;48.694;10.160;2023-10-19T14:02:51;51.50;;;34.43;;
2474;SDS011;1248;48.694;10.160;2023-10-19T14:05:19;53.90;;;34.70;;
2474;SDS011;1248;48.694;10.160;2023-10-19T14:07:49;48.03;;;34.10;;
2474;SDS011;1248;48.694;10.160;2023-10-19T14:10:17;54.80;;;35.17;;
2474;SDS011;1248;48.694;10.160;2023-10-19T14:12:47;45.40;;;32.37;;
2474;SDS011;1248;48.694;10.160;2023-10-19T14:15:15;51.50;;;32.30;;
2474;SDS011;1248;48.694;10.160;2023-10-19T14:17:43;45.37;;;32.60;;
2474;SDS011;1248;48.694;10.160;2023-10-19T14:20:13;43.63;;;31.60;;
2474;SDS011;1248;48.694;10.160;2023-10-19T14:22:40;47.70;;;32.50;;
2474;SDS011;1248;48.694;10.160;2023-10-19T14:25:08;46.67;;;32.97;;
2474;SDS011;1248;48.694;10.160;2023-10-19T14:27:39;48.97;;;32.53;;
2474;SDS011;1248;48.694;10.160;2023-10-19T14:30:07;45.47;;;31.10;;
2474;SDS011;1248;48.694;10.160;2023-10-19T14:32:37;42.57;;;31.00;;
2474;SDS011;1248;48.694;10.160;2023-10-19T14:35:05;41.67;;;31.80;;
2474;SDS011;1248;48.694;10.160;2023-10-19T14:37:36;48.60;;;34.97;;
2474;SDS011;1248;48.694;10.160;2023-10-19T14:40:06;51.70;;;35.03;;
2474;SDS011;1248;48.694;10.160;2023-10-19T14:42:36;52.80;;;33.67;;
2474;SDS011;1248;48.694;10.160;2023-10-19T14:45:04;50.67;;;35.60;;